DW5978 Whyalla SA AU current weather conditions

sailwx.info

Wind from 069 at 17 knots gusting 25

Air temperature 22.2° C
Dewpoint 2.8° C

Last reported at 2016-Aug-28 23:41 UTC.
Time now 2016-Aug-29 00:11 UTC

Location: S 33°01' E 137°32'.
View on Google Maps.

See reports from other nearby stations

  
Tides and Currents Weather Stations Pressure Air Temp Water Temp Dewpoint Dewpoint Depression Visibility Wind Speed Wind Dir Waves Ship Positions
date/time (UTC)wind fromknots sea level pressurealtimeterstation pressurevisibilityair tempwater tempwave heightnotes
2016-Aug-28 23:41 069 17 gusting 25 22.2
2016-Aug-28 23:26 025 19 gusting 27 21.7
2016-Aug-28 23:11 013 17 gusting 25 21.1
2016-Aug-28 22:56 019 16 gusting 26 20.6
2016-Aug-28 22:41 011 9 gusting 15 19.4
2016-Aug-28 22:26 030 6 gusting 10 17.8
2016-Aug-28 22:11 036 6 gusting 12 16.7
2016-Aug-28 21:56 346 7 gusting 12 15.6
2016-Aug-28 21:41 054 7 gusting 13 16.1
2016-Aug-28 21:25
2016-Aug-28 21:10
2016-Aug-28 20:55
2016-Aug-28 20:40
2016-Aug-28 20:25
2016-Aug-28 20:10
2016-Aug-28 19:55
2016-Aug-28 19:40
2016-Aug-28 19:25
2016-Aug-28 19:10
2016-Aug-28 18:40
2016-Aug-28 18:24
2016-Aug-28 18:10
2016-Aug-28 17:54 033 6 gusting 13 17.2
2016-Aug-28 17:39 022 8 gusting 13 17.2
2016-Aug-28 17:24 030 8 gusting 13 17.2
2016-Aug-28 17:09 044 8 gusting 13 17.2
2016-Aug-28 16:54 036 7 gusting 13 17.2
2016-Aug-28 16:39 047 6 gusting 12 17.2
2016-Aug-28 16:24 047 6 gusting 12 17.8
2016-Aug-28 16:09 030 5 gusting 7 17.8
2016-Aug-28 15:39 036 5 gusting 7 17.2
2016-Aug-28 15:24 041 4 gusting 9 17.2
2016-Aug-28 15:09 030 4 gusting 6 16.7
2016-Aug-28 14:55 033 3 gusting 5 16.7
2016-Aug-28 14:40 044 3 gusting 6 16.7
2016-Aug-28 14:25 036 2 gusting 8 17.8
2016-Aug-28 14:10 040 3 gusting 10 18.3
2016-Aug-28 13:55 067 5 gusting 9 17.8
2016-Aug-28 13:40 025 6 gusting 13 18.9
2016-Aug-28 13:25 048 7 gusting 13 20.0
2016-Aug-28 13:10 013 6 gusting 12 20.0
2016-Aug-28 12:55 033 8 gusting 16 20.0
2016-Aug-28 12:38 041 6 gusting 10 19.4
2016-Aug-28 12:24 058 7 gusting 14 20.0
2016-Aug-28 12:08 041 8 gusting 14 20.6
2016-Aug-28 11:53 358 10 gusting 15 20.6
2016-Aug-28 11:38 016 13 gusting 18 20.0
2016-Aug-28 11:24 348 9 gusting 14 20.6
2016-Aug-27 08:20 346 5 gusting 8 18.3
2016-Aug-27 07:47 345 7 gusting 13 18.9
2016-Aug-27 07:32 328 10 gusting 17 18.9
2016-Aug-27 07:17 316 11 gusting 15 19.4
2016-Aug-27 07:02 345 10 gusting 17 19.4
2016-Aug-27 06:47 342 11 gusting 16 19.4
2016-Aug-27 06:32 321 9 gusting 16 19.4
2016-Aug-27 06:17 329 8 gusting 18 20.0
2016-Aug-27 06:02 019 8 gusting 15 20.6
2016-Aug-27 05:47 306 9 gusting 15 20.0
2016-Aug-27 05:32 291 6 gusting 14 19.4
2016-Aug-27 05:17 318 5 gusting 20 19.4
2016-Aug-27 05:02 330 6 gusting 13 20.0
2016-Aug-27 04:47 313 4 gusting 16 20.0
2016-Aug-27 04:32 304 7 gusting 19 20.0
2016-Aug-27 04:17 330 9 gusting 19 20.6
2016-Aug-27 04:02 341 8 gusting 19 20.0
2016-Aug-27 03:47 319 11 gusting 17 20.0
2016-Aug-27 03:32 357 13 gusting 17 20.0
2016-Aug-27 03:17 315 12 gusting 23 19.4
2016-Aug-27 03:02 005 11 gusting 18 19.4
2016-Aug-27 02:47 347 10 gusting 19 18.9
2016-Aug-27 02:32 356 8 gusting 16 18.9
2016-Aug-27 02:17 304 11 gusting 17 18.3
2016-Aug-27 02:02 330 11 gusting 19 18.3
2016-Aug-27 01:47 346 13 gusting 19 17.8
2016-Aug-27 01:32 322 11 gusting 18 17.8
2016-Aug-27 01:17 339 13 gusting 18 17.2
2016-Aug-27 01:02 333 11 gusting 19 16.7
2016-Aug-27 00:48 312 13 gusting 19 16.1
2016-Aug-27 00:31 322 11 gusting 17 15.6
2016-Aug-27 00:16 319 13 gusting 18 15.0
2016-Aug-27 00:01 345 12 gusting 17 14.4